Honeywell Corners, New York
Current Conditions -  °F | °C
As of 9:55 AM on Tuesday 21 Oct 2014 (Local Time) from KNY0 Reporting Station
Overcast Overcast  
Wind Chill: 43°   Ceiling: 5000
Heat Index: 46°   Visibility: 10mi
Dew Point: 43°   Wind: 5mph
Humidity: 91%   Direction: 70°ENE
Pressure: 29.91"   Gusts: NA
Location:  43.0744°N, 74.1473°W
Report Text: KNY0 211355Z AUTO 07004KT 10SM OVC050 08/06 A2991 RMK AO2 T00750061
Loading
Personal Weather Stations






























Interactive Weather Map New forecast layout! Learn more

10-Day Weather Forecast

Advertisements
Track Severe Weather on mobile